sensor_id;sensor_type;location;lat;lon;timestamp;P1;durP1;ratioP1;P2;durP2;ratioP2
11541;SDS011;5827;49.482;7.716;2022-12-18T00:01:27;34.83;;;17.43;;
11541;SDS011;5827;49.482;7.716;2022-12-18T00:03:31;34.57;;;15.80;;
11541;SDS011;5827;49.482;7.716;2022-12-18T00:05:33;35.17;;;16.17;;
11541;SDS011;5827;49.482;7.716;2022-12-18T00:07:35;28.43;;;14.57;;
11541;SDS011;5827;49.482;7.716;2022-12-18T00:09:36;34.40;;;16.20;;
11541;SDS011;5827;49.482;7.716;2022-12-18T00:11:38;30.00;;;15.33;;
11541;SDS011;5827;49.482;7.716;2022-12-18T00:13:40;31.87;;;14.97;;
11541;SDS011;5827;49.482;7.716;2022-12-18T00:15:42;34.47;;;15.33;;
11541;SDS011;5827;49.482;7.716;2022-12-18T00:17:45;32.10;;;15.57;;
11541;SDS011;5827;49.482;7.716;2022-12-18T00:19:47;30.97;;;15.80;;
11541;SDS011;5827;49.482;7.716;2022-12-18T00:21:49;38.90;;;15.80;;
11541;SDS011;5827;49.482;7.716;2022-12-18T00:23:51;35.27;;;15.70;;
11541;SDS011;5827;49.482;7.716;2022-12-18T00:25:52;33.27;;;15.97;;
11541;SDS011;5827;49.482;7.716;2022-12-18T00:27:54;32.33;;;14.80;;
11541;SDS011;5827;49.482;7.716;2022-12-18T00:29:55;32.27;;;14.93;;
11541;SDS011;5827;49.482;7.716;2022-12-18T00:31:57;30.13;;;15.13;;
11541;SDS011;5827;49.482;7.716;2022-12-18T00:34:01;32.87;;;15.93;;
11541;SDS011;5827;49.482;7.716;2022-12-18T00:36:03;34.80;;;15.93;;
11541;SDS011;5827;49.482;7.716;2022-12-18T00:38:06;32.40;;;16.03;;
11541;SDS011;5827;49.482;7.716;2022-12-18T00:40:08;31.23;;;15.30;;
11541;SDS011;5827;49.482;7.716;2022-12-18T00:42:10;32.40;;;16.60;;
11541;SDS011;5827;49.482;7.716;2022-12-18T00:44:30;31.63;;;16.10;;
11541;SDS011;5827;49.482;7.716;2022-12-18T00:46:31;30.60;;;15.37;;
11541;SDS011;5827;49.482;7.716;2022-12-18T00:48:34;33.47;;;15.80;;
11541;SDS011;5827;49.482;7.716;2022-12-18T00:50:37;35.47;;;16.20;;
11541;SDS011;5827;49.482;7.716;2022-12-18T00:52:38;35.40;;;16.77;;
11541;SDS011;5827;49.482;7.716;2022-12-18T00:54:40;33.63;;;16.70;;
11541;SDS011;5827;49.482;7.716;2022-12-18T00:56:41;38.07;;;16.97;;
11541;SDS011;5827;49.482;7.716;2022-12-18T00:58:43;31.63;;;16.17;;
11541;SDS011;5827;49.482;7.716;2022-12-18T01:00:44;34.00;;;16.20;;
11541;SDS011;5827;49.482;7.716;2022-12-18T01:02:46;36.60;;;16.40;;
11541;SDS011;5827;49.482;7.716;2022-12-18T01:04:48;36.60;;;16.97;;
11541;SDS011;5827;49.482;7.716;2022-12-18T01:06:51;41.70;;;17.83;;
11541;SDS011;5827;49.482;7.716;2022-12-18T01:08:52;55.80;;;23.87;;
11541;SDS011;5827;49.482;7.716;2022-12-18T01:10:54;48.00;;;20.43;;
11541;SDS011;5827;49.482;7.716;2022-12-18T01:12:55;48.97;;;21.27;;
11541;SDS011;5827;49.482;7.716;2022-12-18T01:14:57;45.90;;;21.37;;
11541;SDS011;5827;49.482;7.716;2022-12-18T01:16:58;45.30;;;20.17;;
11541;SDS011;5827;49.482;7.716;2022-12-18T01:19:02;34.73;;;17.57;;
11541;SDS011;5827;49.482;7.716;2022-12-18T01:21:05;42.17;;;17.13;;
11541;SDS011;5827;49.482;7.716;2022-12-18T01:23:09;39.97;;;18.67;;
11541;SDS011;5827;49.482;7.716;2022-12-18T01:25:10;40.87;;;18.90;;
11541;SDS011;5827;49.482;7.716;2022-12-18T01:27:12;41.23;;;18.33;;
11541;SDS011;5827;49.482;7.716;2022-12-18T01:29:13;36.67;;;18.77;;
11541;SDS011;5827;49.482;7.716;2022-12-18T01:31:18;37.80;;;17.43;;
11541;SDS011;5827;49.482;7.716;2022-12-18T01:33:22;38.80;;;18.07;;
11541;SDS011;5827;49.482;7.716;2022-12-18T01:35:24;43.10;;;18.80;;
11541;SDS011;5827;49.482;7.716;2022-12-18T01:37:25;38.23;;;18.23;;
11541;SDS011;5827;49.482;7.716;2022-12-18T01:39:28;36.70;;;17.53;;
11541;SDS011;5827;49.482;7.716;2022-12-18T01:41:30;37.37;;;17.10;;
11541;SDS011;5827;49.482;7.716;2022-12-18T01:43:48;37.33;;;16.67;;
11541;SDS011;5827;49.482;7.716;2022-12-18T01:45:52;38.10;;;16.03;;
11541;SDS011;5827;49.482;7.716;2022-12-18T01:47:54;30.67;;;16.30;;
11541;SDS011;5827;49.482;7.716;2022-12-18T01:49:58;31.43;;;15.40;;
11541;SDS011;5827;49.482;7.716;2022-12-18T01:52:03;34.50;;;17.23;;
11541;SDS011;5827;49.482;7.716;2022-12-18T01:54:05;32.97;;;15.33;;
11541;SDS011;5827;49.482;7.716;2022-12-18T01:56:08;34.03;;;16.13;;
11541;SDS011;5827;49.482;7.716;2022-12-18T01:58:13;35.63;;;16.47;;
11541;SDS011;5827;49.482;7.716;2022-12-18T02:00:17;35.57;;;15.70;;
11541;SDS011;5827;49.482;7.716;2022-12-18T02:02:20;36.23;;;16.23;;
11541;SDS011;5827;49.482;7.716;2022-12-18T02:04:22;35.30;;;15.70;;
11541;SDS011;5827;49.482;7.716;2022-12-18T02:06:26;37.23;;;15.50;;
11541;SDS011;5827;49.482;7.716;2022-12-18T02:08:35;36.07;;;15.27;;
11541;SDS011;5827;49.482;7.716;2022-12-18T02:10:45;36.27;;;16.03;;
11541;SDS011;5827;49.482;7.716;2022-12-18T02:12:55;35.47;;;16.73;;
11541;SDS011;5827;49.482;7.716;2022-12-18T02:15:04;31.83;;;15.30;;
11541;SDS011;5827;49.482;7.716;2022-12-18T02:17:11;38.43;;;16.33;;
11541;SDS011;5827;49.482;7.716;2022-12-18T02:19:37;37.77;;;15.83;;
11541;SDS011;5827;49.482;7.716;2022-12-18T02:21:46;32.13;;;15.63;;
11541;SDS011;5827;49.482;7.716;2022-12-18T02:23:56;32.03;;;14.33;;
11541;SDS011;5827;49.482;7.716;2022-12-18T02:26:12;35.30;;;15.47;;
11541;SDS011;5827;49.482;7.716;2022-12-18T02:28:19;32.93;;;14.90;;
11541;SDS011;5827;49.482;7.716;2022-12-18T02:30:25;32.77;;;14.40;;
11541;SDS011;5827;49.482;7.716;2022-12-18T02:32:31;34.00;;;15.43;;
11541;SDS011;5827;49.482;7.716;2022-12-18T02:34:37;35.63;;;16.17;;
11541;SDS011;5827;49.482;7.716;2022-12-18T02:36:40;36.80;;;15.93;;
11541;SDS011;5827;49.482;7.716;2022-12-18T02:38:45;32.93;;;15.30;;
11541;SDS011;5827;49.482;7.716;2022-12-18T02:40:48;31.90;;;14.63;;
11541;SDS011;5827;49.482;7.716;2022-12-18T02:42:52;29.17;;;15.00;;
11541;SDS011;5827;49.482;7.716;2022-12-18T02:44:53;36.57;;;16.30;;
11541;SDS011;5827;49.482;7.716;2022-12-18T02:46:55;38.50;;;15.50;;
11541;SDS011;5827;49.482;7.716;2022-12-18T02:49:00;33.47;;;15.57;;
11541;SDS011;5827;49.482;7.716;2022-12-18T02:51:08;33.13;;;16.23;;
11541;SDS011;5827;49.482;7.716;2022-12-18T02:53:21;33.77;;;15.50;;
11541;SDS011;5827;49.482;7.716;2022-12-18T02:55:30;31.43;;;14.97;;
11541;SDS011;5827;49.482;7.716;2022-12-18T02:57:42;32.10;;;15.30;;
11541;SDS011;5827;49.482;7.716;2022-12-18T02:59:49;33.83;;;15.50;;
11541;SDS011;5827;49.482;7.716;2022-12-18T03:02:00;35.17;;;15.37;;
11541;SDS011;5827;49.482;7.716;2022-12-18T03:04:07;32.53;;;14.93;;
11541;SDS011;5827;49.482;7.716;2022-12-18T03:06:15;35.10;;;16.30;;
11541;SDS011;5827;49.482;7.716;2022-12-18T03:08:23;33.27;;;15.87;;
11541;SDS011;5827;49.482;7.716;2022-12-18T03:10:29;36.27;;;16.43;;
11541;SDS011;5827;49.482;7.716;2022-12-18T03:12:35;36.03;;;15.97;;
11541;SDS011;5827;49.482;7.716;2022-12-18T03:14:38;38.10;;;16.13;;
11541;SDS011;5827;49.482;7.716;2022-12-18T03:16:45;32.53;;;15.20;;
11541;SDS011;5827;49.482;7.716;2022-12-18T03:18:51;32.60;;;15.20;;
11541;SDS011;5827;49.482;7.716;2022-12-18T03:20:56;34.60;;;15.47;;
11541;SDS011;5827;49.482;7.716;2022-12-18T03:23:02;34.63;;;15.60;;
11541;SDS011;5827;49.482;7.716;2022-12-18T03:25:09;34.07;;;15.67;;
11541;SDS011;5827;49.482;7.716;2022-12-18T03:27:14;33.57;;;16.03;;
11541;SDS011;5827;49.482;7.716;2022-12-18T03:29:21;34.23;;;15.10;;
11541;SDS011;5827;49.482;7.716;2022-12-18T03:31:28;29.90;;;14.07;;
11541;SDS011;5827;49.482;7.716;2022-12-18T03:33:37;34.80;;;14.83;;
11541;SDS011;5827;49.482;7.716;2022-12-18T03:35:42;35.80;;;15.83;;
11541;SDS011;5827;49.482;7.716;2022-12-18T03:37:45;34.70;;;15.53;;
11541;SDS011;5827;49.482;7.716;2022-12-18T03:39:46;36.13;;;16.30;;
11541;SDS011;5827;49.482;7.716;2022-12-18T03:41:49;36.37;;;16.10;;
11541;SDS011;5827;49.482;7.716;2022-12-18T03:43:55;34.93;;;16.03;;
11541;SDS011;5827;49.482;7.716;2022-12-18T03:46:05;34.60;;;15.67;;
11541;SDS011;5827;49.482;7.716;2022-12-18T03:48:12;35.43;;;16.27;;
11541;SDS011;5827;49.482;7.716;2022-12-18T03:50:20;34.60;;;15.90;;
11541;SDS011;5827;49.482;7.716;2022-12-18T03:52:29;37.77;;;17.57;;
11541;SDS011;5827;49.482;7.716;2022-12-18T03:54:35;35.43;;;17.30;;
11541;SDS011;5827;49.482;7.716;2022-12-18T03:56:39;38.90;;;17.40;;
11541;SDS011;5827;49.482;7.716;2022-12-18T03:58:44;35.10;;;16.77;;
11541;SDS011;5827;49.482;7.716;2022-12-18T04:00:49;33.00;;;15.97;;
11541;SDS011;5827;49.482;7.716;2022-12-18T04:02:54;37.30;;;16.27;;
11541;SDS011;5827;49.482;7.716;2022-12-18T04:04:57;40.90;;;19.57;;
11541;SDS011;5827;49.482;7.716;2022-12-18T04:07:06;38.70;;;17.80;;
11541;SDS011;5827;49.482;7.716;2022-12-18T04:09:09;41.23;;;19.80;;
11541;SDS011;5827;49.482;7.716;2022-12-18T04:11:11;43.30;;;19.37;;
11541;SDS011;5827;49.482;7.716;2022-12-18T04:13:13;41.90;;;18.90;;
11541;SDS011;5827;49.482;7.716;2022-12-18T04:15:23;35.50;;;17.67;;
11541;SDS011;5827;49.482;7.716;2022-12-18T04:17:25;40.50;;;16.73;;
11541;SDS011;5827;49.482;7.716;2022-12-18T04:19:26;32.90;;;16.20;;
11541;SDS011;5827;49.482;7.716;2022-12-18T04:21:28;36.73;;;16.77;;
11541;SDS011;5827;49.482;7.716;2022-12-18T04:23:31;37.10;;;17.77;;
11541;SDS011;5827;49.482;7.716;2022-12-18T04:25:32;33.30;;;15.37;;
11541;SDS011;5827;49.482;7.716;2022-12-18T04:27:34;35.80;;;15.33;;
11541;SDS011;5827;49.482;7.716;2022-12-18T04:29:35;36.83;;;16.10;;
11541;SDS011;5827;49.482;7.716;2022-12-18T04:31:37;34.60;;;15.50;;
11541;SDS011;5827;49.482;7.716;2022-12-18T04:33:38;36.27;;;16.40;;
11541;SDS011;5827;49.482;7.716;2022-12-18T04:35:40;38.23;;;17.77;;
11541;SDS011;5827;49.482;7.716;2022-12-18T04:37:42;36.83;;;16.07;;
11541;SDS011;5827;49.482;7.716;2022-12-18T04:39:45;36.93;;;16.13;;
11541;SDS011;5827;49.482;7.716;2022-12-18T04:41:47;37.60;;;15.17;;
11541;SDS011;5827;49.482;7.716;2022-12-18T04:43:48;34.60;;;16.13;;
11541;SDS011;5827;49.482;7.716;2022-12-18T04:45:50;35.30;;;16.50;;
11541;SDS011;5827;49.482;7.716;2022-12-18T04:47:51;37.37;;;17.17;;
11541;SDS011;5827;49.482;7.716;2022-12-18T04:49:53;35.47;;;16.07;;
11541;SDS011;5827;49.482;7.716;2022-12-18T04:51:54;32.07;;;15.43;;
11541;SDS011;5827;49.482;7.716;2022-12-18T04:53:56;36.87;;;16.80;;
11541;SDS011;5827;49.482;7.716;2022-12-18T04:56:09;34.43;;;15.07;;
11541;SDS011;5827;49.482;7.716;2022-12-18T04:58:12;35.10;;;15.30;;
11541;SDS011;5827;49.482;7.716;2022-12-18T05:00:13;36.87;;;15.53;;
11541;SDS011;5827;49.482;7.716;2022-12-18T05:02:16;31.63;;;13.90;;
11541;SDS011;5827;49.482;7.716;2022-12-18T05:04:17;36.80;;;15.73;;
11541;SDS011;5827;49.482;7.716;2022-12-18T05:06:19;35.60;;;15.97;;
11541;SDS011;5827;49.482;7.716;2022-12-18T05:08:20;35.40;;;15.63;;
11541;SDS011;5827;49.482;7.716;2022-12-18T05:10:22;35.13;;;14.67;;
11541;SDS011;5827;49.482;7.716;2022-12-18T05:12:25;32.87;;;15.63;;
11541;SDS011;5827;49.482;7.716;2022-12-18T05:14:26;37.93;;;16.97;;
11541;SDS011;5827;49.482;7.716;2022-12-18T05:16:29;32.83;;;15.10;;
11541;SDS011;5827;49.482;7.716;2022-12-18T05:18:31;39.30;;;16.53;;
11541;SDS011;5827;49.482;7.716;2022-12-18T05:20:32;38.40;;;16.43;;
11541;SDS011;5827;49.482;7.716;2022-12-18T05:22:34;34.50;;;15.10;;
11541;SDS011;5827;49.482;7.716;2022-12-18T05:24:35;32.80;;;16.17;;
11541;SDS011;5827;49.482;7.716;2022-12-18T05:26:37;33.60;;;14.57;;
11541;SDS011;5827;49.482;7.716;2022-12-18T05:28:40;35.77;;;15.93;;
11541;SDS011;5827;49.482;7.716;2022-12-18T05:30:41;29.97;;;14.03;;
11541;SDS011;5827;49.482;7.716;2022-12-18T05:32:43;33.77;;;15.23;;
11541;SDS011;5827;49.482;7.716;2022-12-18T05:34:44;32.27;;;14.90;;
11541;SDS011;5827;49.482;7.716;2022-12-18T05:36:46;33.40;;;15.60;;
11541;SDS011;5827;49.482;7.716;2022-12-18T05:38:47;38.23;;;15.77;;
11541;SDS011;5827;49.482;7.716;2022-12-18T05:40:49;35.37;;;14.43;;
11541;SDS011;5827;49.482;7.716;2022-12-18T05:42:51;34.60;;;15.33;;
11541;SDS011;5827;49.482;7.716;2022-12-18T05:44:54;32.17;;;14.43;;
11541;SDS011;5827;49.482;7.716;2022-12-18T05:46:55;37.90;;;15.50;;
11541;SDS011;5827;49.482;7.716;2022-12-18T05:48:58;34.93;;;15.20;;
11541;SDS011;5827;49.482;7.716;2022-12-18T05:51:04;37.63;;;14.83;;
11541;SDS011;5827;49.482;7.716;2022-12-18T05:53:08;35.43;;;14.93;;
11541;SDS011;5827;49.482;7.716;2022-12-18T05:55:09;34.13;;;15.10;;
11541;SDS011;5827;49.482;7.716;2022-12-18T05:57:11;36.47;;;15.83;;
11541;SDS011;5827;49.482;7.716;2022-12-18T05:59:12;36.23;;;16.63;;
11541;SDS011;5827;49.482;7.716;2022-12-18T06:01:16;40.77;;;16.20;;
11541;SDS011;5827;49.482;7.716;2022-12-18T06:03:19;43.40;;;17.30;;
11541;SDS011;5827;49.482;7.716;2022-12-18T06:05:21;34.93;;;15.50;;
11541;SDS011;5827;49.482;7.716;2022-12-18T06:07:22;39.43;;;16.73;;
11541;SDS011;5827;49.482;7.716;2022-12-18T06:09:24;38.20;;;16.37;;
11541;SDS011;5827;49.482;7.716;2022-12-18T06:11:26;38.83;;;16.00;;
11541;SDS011;5827;49.482;7.716;2022-12-18T06:13:27;43.10;;;16.87;;
11541;SDS011;5827;49.482;7.716;2022-12-18T06:15:29;38.10;;;16.03;;
11541;SDS011;5827;49.482;7.716;2022-12-18T06:17:33;37.10;;;16.87;;
11541;SDS011;5827;49.482;7.716;2022-12-18T06:19:35;36.77;;;16.30;;
11541;SDS011;5827;49.482;7.716;2022-12-18T06:21:37;36.17;;;16.27;;
11541;SDS011;5827;49.482;7.716;2022-12-18T06:23:39;37.83;;;15.33;;
11541;SDS011;5827;49.482;7.716;2022-12-18T06:25:40;35.93;;;14.30;;
11541;SDS011;5827;49.482;7.716;2022-12-18T06:27:42;36.20;;;16.23;;
11541;SDS011;5827;49.482;7.716;2022-12-18T06:29:43;34.47;;;17.07;;
11541;SDS011;5827;49.482;7.716;2022-12-18T06:31:45;38.47;;;17.83;;
11541;SDS011;5827;49.482;7.716;2022-12-18T06:33:48;32.73;;;15.70;;
11541;SDS011;5827;49.482;7.716;2022-12-18T06:35:50;34.40;;;16.00;;
11541;SDS011;5827;49.482;7.716;2022-12-18T06:37:52;37.20;;;16.60;;
11541;SDS011;5827;49.482;7.716;2022-12-18T06:39:53;35.53;;;16.37;;
11541;SDS011;5827;49.482;7.716;2022-12-18T06:41:56;36.47;;;15.73;;
11541;SDS011;5827;49.482;7.716;2022-12-18T06:43:58;30.27;;;14.47;;
11541;SDS011;5827;49.482;7.716;2022-12-18T06:45:59;30.53;;;15.07;;
11541;SDS011;5827;49.482;7.716;2022-12-18T06:48:01;31.50;;;14.67;;
11541;SDS011;5827;49.482;7.716;2022-12-18T06:50:05;36.77;;;15.40;;
11541;SDS011;5827;49.482;7.716;2022-12-18T06:52:07;35.40;;;15.27;;
11541;SDS011;5827;49.482;7.716;2022-12-18T06:54:08;32.33;;;14.93;;
11541;SDS011;5827;49.482;7.716;2022-12-18T06:56:10;31.53;;;15.23;;
11541;SDS011;5827;49.482;7.716;2022-12-18T06:58:12;32.77;;;15.47;;
11541;SDS011;5827;49.482;7.716;2022-12-18T07:00:13;31.87;;;13.37;;
11541;SDS011;5827;49.482;7.716;2022-12-18T07:02:15;31.07;;;14.93;;
11541;SDS011;5827;49.482;7.716;2022-12-18T07:04:18;32.43;;;14.27;;
11541;SDS011;5827;49.482;7.716;2022-12-18T07:06:21;31.80;;;15.57;;
11541;SDS011;5827;49.482;7.716;2022-12-18T07:08:24;38.97;;;16.50;;
11541;SDS011;5827;49.482;7.716;2022-12-18T07:10:26;33.43;;;16.47;;
11541;SDS011;5827;49.482;7.716;2022-12-18T07:12:27;36.33;;;16.87;;
11541;SDS011;5827;49.482;7.716;2022-12-18T07:14:29;35.50;;;17.57;;
11541;SDS011;5827;49.482;7.716;2022-12-18T07:16:30;39.23;;;16.63;;
11541;SDS011;5827;49.482;7.716;2022-12-18T07:18:32;34.07;;;16.27;;
11541;SDS011;5827;49.482;7.716;2022-12-18T07:20:33;34.30;;;17.07;;
11541;SDS011;5827;49.482;7.716;2022-12-18T07:22:37;37.37;;;16.93;;
11541;SDS011;5827;49.482;7.716;2022-12-18T07:24:38;35.10;;;16.47;;
11541;SDS011;5827;49.482;7.716;2022-12-18T07:26:40;33.93;;;17.07;;
11541;SDS011;5827;49.482;7.716;2022-12-18T07:28:41;36.80;;;16.43;;
11541;SDS011;5827;49.482;7.716;2022-12-18T07:30:43;31.93;;;16.90;;
11541;SDS011;5827;49.482;7.716;2022-12-18T07:32:45;40.03;;;17.80;;
11541;SDS011;5827;49.482;7.716;2022-12-18T07:34:46;37.10;;;18.07;;
11541;SDS011;5827;49.482;7.716;2022-12-18T07:36:48;35.77;;;16.80;;
11541;SDS011;5827;49.482;7.716;2022-12-18T07:38:51;33.50;;;15.80;;
11541;SDS011;5827;49.482;7.716;2022-12-18T07:40:53;36.13;;;16.23;;
11541;SDS011;5827;49.482;7.716;2022-12-18T07:42:54;35.33;;;16.83;;
11541;SDS011;5827;49.482;7.716;2022-12-18T07:44:56;37.73;;;16.27;;
11541;SDS011;5827;49.482;7.716;2022-12-18T07:46:57;38.47;;;18.13;;
11541;SDS011;5827;49.482;7.716;2022-12-18T07:48:59;36.67;;;18.93;;
11541;SDS011;5827;49.482;7.716;2022-12-18T07:51:00;38.20;;;18.50;;
11541;SDS011;5827;49.482;7.716;2022-12-18T07:53:04;37.87;;;18.53;;
11541;SDS011;5827;49.482;7.716;2022-12-18T07:55:07;40.10;;;19.17;;
11541;SDS011;5827;49.482;7.716;2022-12-18T07:57:09;40.17;;;20.83;;
11541;SDS011;5827;49.482;7.716;2022-12-18T07:59:11;38.67;;;19.30;;
11541;SDS011;5827;49.482;7.716;2022-12-18T08:01:12;38.13;;;20.07;;
11541;SDS011;5827;49.482;7.716;2022-12-18T08:03:14;40.50;;;19.47;;
11541;SDS011;5827;49.482;7.716;2022-12-18T08:05:16;37.17;;;19.10;;
11541;SDS011;5827;49.482;7.716;2022-12-18T08:07:18;38.30;;;18.57;;
11541;SDS011;5827;49.482;7.716;2022-12-18T08:09:19;36.70;;;17.47;;
11541;SDS011;5827;49.482;7.716;2022-12-18T08:11:24;36.80;;;18.40;;
11541;SDS011;5827;49.482;7.716;2022-12-18T08:13:27;37.67;;;19.00;;
11541;SDS011;5827;49.482;7.716;2022-12-18T08:15:29;40.27;;;18.90;;
11541;SDS011;5827;49.482;7.716;2022-12-18T08:17:30;42.27;;;19.30;;
11541;SDS011;5827;49.482;7.716;2022-12-18T08:19:32;33.17;;;16.97;;
11541;SDS011;5827;49.482;7.716;2022-12-18T08:21:33;41.07;;;18.87;;
11541;SDS011;5827;49.482;7.716;2022-12-18T08:23:35;44.07;;;21.13;;
11541;SDS011;5827;49.482;7.716;2022-12-18T08:25:36;50.70;;;24.50;;
11541;SDS011;5827;49.482;7.716;2022-12-18T08:27:39;46.20;;;21.43;;
11541;SDS011;5827;49.482;7.716;2022-12-18T08:29:41;42.30;;;19.27;;
11541;SDS011;5827;49.482;7.716;2022-12-18T08:31:42;38.93;;;17.80;;
11541;SDS011;5827;49.482;7.716;2022-12-18T08:33:44;40.40;;;17.70;;
11541;SDS011;5827;49.482;7.716;2022-12-18T08:35:45;34.23;;;17.17;;
11541;SDS011;5827;49.482;7.716;2022-12-18T08:37:47;37.93;;;17.20;;
11541;SDS011;5827;49.482;7.716;2022-12-18T08:39:48;37.90;;;17.93;;
11541;SDS011;5827;49.482;7.716;2022-12-18T08:41:50;37.87;;;17.53;;
11541;SDS011;5827;49.482;7.716;2022-12-18T08:44:08;38.17;;;16.80;;
11541;SDS011;5827;49.482;7.716;2022-12-18T08:46:27;34.03;;;17.17;;
11541;SDS011;5827;49.482;7.716;2022-12-18T08:48:35;41.93;;;18.00;;
11541;SDS011;5827;49.482;7.716;2022-12-18T08:50:36;36.70;;;17.67;;
11541;SDS011;5827;49.482;7.716;2022-12-18T08:52:38;38.37;;;17.70;;
11541;SDS011;5827;49.482;7.716;2022-12-18T08:54:39;34.03;;;16.93;;
11541;SDS011;5827;49.482;7.716;2022-12-18T08:56:41;33.37;;;17.33;;
11541;SDS011;5827;49.482;7.716;2022-12-18T08:58:43;35.57;;;16.97;;
11541;SDS011;5827;49.482;7.716;2022-12-18T09:00:45;35.93;;;17.20;;
11541;SDS011;5827;49.482;7.716;2022-12-18T09:02:47;36.23;;;17.83;;
11541;SDS011;5827;49.482;7.716;2022-12-18T09:04:49;40.03;;;17.27;;
11541;SDS011;5827;49.482;7.716;2022-12-18T09:06:51;35.37;;;17.67;;
11541;SDS011;5827;49.482;7.716;2022-12-18T09:08:52;38.33;;;17.53;;
11541;SDS011;5827;49.482;7.716;2022-12-18T09:10:54;40.30;;;18.17;;
11541;SDS011;5827;49.482;7.716;2022-12-18T09:12:56;39.63;;;17.80;;
11541;SDS011;5827;49.482;7.716;2022-12-18T09:14:57;38.93;;;17.47;;
11541;SDS011;5827;49.482;7.716;2022-12-18T09:17:00;35.00;;;17.07;;
11541;SDS011;5827;49.482;7.716;2022-12-18T09:19:02;38.90;;;17.90;;
11541;SDS011;5827;49.482;7.716;2022-12-18T09:21:09;43.63;;;20.70;;
11541;SDS011;5827;49.482;7.716;2022-12-18T09:23:12;50.70;;;25.33;;
11541;SDS011;5827;49.482;7.716;2022-12-18T09:25:14;50.07;;;24.53;;
11541;SDS011;5827;49.482;7.716;2022-12-18T09:27:16;57.50;;;27.13;;
11541;SDS011;5827;49.482;7.716;2022-12-18T09:29:18;55.13;;;25.53;;
11541;SDS011;5827;49.482;7.716;2022-12-18T09:31:20;51.67;;;25.07;;
11541;SDS011;5827;49.482;7.716;2022-12-18T09:33:23;56.47;;;26.67;;
11541;SDS011;5827;49.482;7.716;2022-12-18T09:35:26;53.43;;;24.27;;
11541;SDS011;5827;49.482;7.716;2022-12-18T09:37:27;56.97;;;24.90;;
11541;SDS011;5827;49.482;7.716;2022-12-18T09:39:29;52.70;;;24.57;;
11541;SDS011;5827;49.482;7.716;2022-12-18T09:41:36;57.10;;;24.03;;
11541;SDS011;5827;49.482;7.716;2022-12-18T09:43:43;48.13;;;23.07;;
11541;SDS011;5827;49.482;7.716;2022-12-18T09:45:49;56.43;;;23.13;;
11541;SDS011;5827;49.482;7.716;2022-12-18T09:47:54;57.10;;;23.73;;
11541;SDS011;5827;49.482;7.716;2022-12-18T09:49:59;57.47;;;24.80;;
11541;SDS011;5827;49.482;7.716;2022-12-18T09:52:08;58.40;;;26.33;;
11541;SDS011;5827;49.482;7.716;2022-12-18T09:54:14;54.93;;;26.07;;
11541;SDS011;5827;49.482;7.716;2022-12-18T09:56:19;57.30;;;25.87;;
11541;SDS011;5827;49.482;7.716;2022-12-18T09:58:24;55.83;;;26.80;;
11541;SDS011;5827;49.482;7.716;2022-12-18T10:00:30;56.97;;;27.13;;
11541;SDS011;5827;49.482;7.716;2022-12-18T10:02:32;58.37;;;25.50;;
11541;SDS011;5827;49.482;7.716;2022-12-18T10:04:33;55.17;;;26.03;;
11541;SDS011;5827;49.482;7.716;2022-12-18T10:06:37;65.30;;;30.50;;
11541;SDS011;5827;49.482;7.716;2022-12-18T10:08:45;63.63;;;29.70;;
11541;SDS011;5827;49.482;7.716;2022-12-18T10:10:53;58.70;;;28.20;;
11541;SDS011;5827;49.482;7.716;2022-12-18T10:13:00;65.27;;;28.13;;
11541;SDS011;5827;49.482;7.716;2022-12-18T10:15:10;59.27;;;28.17;;
11541;SDS011;5827;49.482;7.716;2022-12-18T10:17:22;55.57;;;26.47;;
11541;SDS011;5827;49.482;7.716;2022-12-18T10:19:35;60.83;;;27.57;;
11541;SDS011;5827;49.482;7.716;2022-12-18T10:21:43;56.63;;;26.57;;
11541;SDS011;5827;49.482;7.716;2022-12-18T10:23:54;59.03;;;28.27;;
11541;SDS011;5827;49.482;7.716;2022-12-18T10:26:03;60.20;;;28.17;;
11541;SDS011;5827;49.482;7.716;2022-12-18T10:28:07;59.40;;;28.10;;
11541;SDS011;5827;49.482;7.716;2022-12-18T10:30:13;56.13;;;27.57;;
11541;SDS011;5827;49.482;7.716;2022-12-18T10:32:18;53.80;;;27.20;;
11541;SDS011;5827;49.482;7.716;2022-12-18T10:34:21;60.03;;;26.43;;
11541;SDS011;5827;49.482;7.716;2022-12-18T10:36:23;54.40;;;27.43;;
11541;SDS011;5827;49.482;7.716;2022-12-18T10:38:27;59.17;;;29.57;;
11541;SDS011;5827;49.482;7.716;2022-12-18T10:40:29;50.50;;;26.33;;
11541;SDS011;5827;49.482;7.716;2022-12-18T10:42:31;54.30;;;26.10;;
11541;SDS011;5827;49.482;7.716;2022-12-18T10:44:33;54.00;;;26.20;;
11541;SDS011;5827;49.482;7.716;2022-12-18T10:46:34;48.00;;;23.53;;
11541;SDS011;5827;49.482;7.716;2022-12-18T10:54:38;52.87;;;25.53;;
11541;SDS011;5827;49.482;7.716;2022-12-18T10:56:40;53.90;;;26.27;;
11541;SDS011;5827;49.482;7.716;2022-12-18T10:58:42;54.40;;;26.90;;
11541;SDS011;5827;49.482;7.716;2022-12-18T11:01:04;47.33;;;25.80;;
11541;SDS011;5827;49.482;7.716;2022-12-18T11:03:17;59.33;;;28.77;;
11541;SDS011;5827;49.482;7.716;2022-12-18T11:05:32;55.73;;;27.97;;
11541;SDS011;5827;49.482;7.716;2022-12-18T11:10:01;44.90;;;24.50;;
11541;SDS011;5827;49.482;7.716;2022-12-18T11:12:03;49.00;;;25.33;;
11541;SDS011;5827;49.482;7.716;2022-12-18T11:14:18;50.70;;;26.63;;
11541;SDS011;5827;49.482;7.716;2022-12-18T11:16:23;48.83;;;25.93;;
11541;SDS011;5827;49.482;7.716;2022-12-18T11:18:26;48.70;;;25.23;;
11541;SDS011;5827;49.482;7.716;2022-12-18T11:20:31;45.60;;;25.10;;
11541;SDS011;5827;49.482;7.716;2022-12-18T11:22:35;47.27;;;24.30;;
11541;SDS011;5827;49.482;7.716;2022-12-18T11:24:38;51.47;;;25.97;;
11541;SDS011;5827;49.482;7.716;2022-12-18T11:26:42;59.90;;;29.53;;
11541;SDS011;5827;49.482;7.716;2022-12-18T11:28:45;46.53;;;25.80;;
11541;SDS011;5827;49.482;7.716;2022-12-18T11:30:48;52.50;;;27.07;;
11541;SDS011;5827;49.482;7.716;2022-12-18T11:32:50;52.47;;;27.53;;
11541;SDS011;5827;49.482;7.716;2022-12-18T11:34:55;47.13;;;23.77;;
11541;SDS011;5827;49.482;7.716;2022-12-18T11:37:03;45.17;;;23.03;;
11541;SDS011;5827;49.482;7.716;2022-12-18T11:39:07;46.40;;;25.00;;
11541;SDS011;5827;49.482;7.716;2022-12-18T11:41:19;40.87;;;22.97;;
11541;SDS011;5827;49.482;7.716;2022-12-18T11:43:49;57.27;;;28.83;;
11541;SDS011;5827;49.482;7.716;2022-12-18T11:45:54;47.40;;;24.27;;
11541;SDS011;5827;49.482;7.716;2022-12-18T11:48:01;42.70;;;23.73;;
11541;SDS011;5827;49.482;7.716;2022-12-18T11:50:10;41.10;;;23.73;;
11541;SDS011;5827;49.482;7.716;2022-12-18T11:52:16;44.00;;;22.80;;
11541;SDS011;5827;49.482;7.716;2022-12-18T11:54:20;47.27;;;23.73;;
11541;SDS011;5827;49.482;7.716;2022-12-18T11:56:26;45.53;;;24.67;;
11541;SDS011;5827;49.482;7.716;2022-12-18T11:58:38;43.70;;;23.80;;
11541;SDS011;5827;49.482;7.716;2022-12-18T12:00:50;44.67;;;23.53;;
11541;SDS011;5827;49.482;7.716;2022-12-18T12:03:07;42.97;;;23.37;;
11541;SDS011;5827;49.482;7.716;2022-12-18T12:05:25;43.50;;;23.20;;
11541;SDS011;5827;49.482;7.716;2022-12-18T12:07:40;43.27;;;21.97;;
11541;SDS011;5827;49.482;7.716;2022-12-18T12:09:49;45.27;;;23.83;;
11541;SDS011;5827;49.482;7.716;2022-12-18T12:12:01;46.10;;;24.20;;
11541;SDS011;5827;49.482;7.716;2022-12-18T12:14:20;43.57;;;22.20;;
11541;SDS011;5827;49.482;7.716;2022-12-18T12:16:34;49.53;;;24.87;;
11541;SDS011;5827;49.482;7.716;2022-12-18T12:18:46;86.97;;;36.60;;
11541;SDS011;5827;49.482;7.716;2022-12-18T12:21:02;55.43;;;32.00;;
11541;SDS011;5827;49.482;7.716;2022-12-18T12:23:13;49.07;;;25.50;;
11541;SDS011;5827;49.482;7.716;2022-12-18T12:25:27;45.00;;;24.60;;